Time;durP1;ratioP1;P1;durP2;ratioP2;P2;SDS_P1;SDS_P2;PMS_P1;PMS_P2;Temp;Humidity;BMP_temperature;BMP_pressure;BME280_temperature;BME280_humidity;BME280_pressure;Samples;Min_cycle;Max_cycle;Signal;HPM_P1;HPM_P2
2022/08/07 00:00:26;;;;;;;0.40;0.40;;;;;;;17.20;48.05;98879.47;4997110;28;20046;-86
2022/08/07 00:02:55;;;;;;;0.40;0.40;;;;;;;16.96;48.68;98867.94;4996539;28;20089;-86
2022/08/07 00:05:23;;;;;;;0.40;0.40;;;;;;;16.96;49.50;98872.41;4996217;28;20050;-86
2022/08/07 00:07:53;;;;;;;0.30;0.30;;;;;;;16.80;48.95;98863.25;4980261;28;20056;-86
2022/08/07 00:10:28;;;;;;;0.40;0.40;;;;;;;16.72;49.27;98877.56;4996594;28;20053;-87
2022/08/07 00:13:04;;;;;;;0.40;0.40;;;;;;;16.71;50.43;98862.72;4996199;28;20043;-85
2022/08/07 00:15:54;;;;;;;0.30;0.30;;;;;;;16.64;49.76;98861.13;4996726;28;20101;-87
2022/08/07 00:18:27;;;;;;;0.98;0.50;;;;;;;16.73;50.13;98863.31;4996409;28;20039;-86
2022/08/07 00:21:04;;;;;;;0.40;0.40;;;;;;;16.53;51.11;98860.81;4994716;28;20443;-86
2022/08/07 00:23:51;;;;;;;0.43;0.40;;;;;;;16.32;50.61;98851.47;4995212;28;20038;-86
2022/08/07 00:26:18;;;;;;;0.30;0.30;;;;;;;16.35;51.90;98855.50;4995392;28;20449;-86
2022/08/07 00:29:05;;;;;;;0.43;0.43;;;;;;;16.40;52.16;98860.97;4995171;28;20046;-86
2022/08/07 00:31:31;;;;;;;0.50;0.50;;;;;;;16.30;51.31;98868.59;4979363;28;20489;-87
2022/08/07 00:34:06;;;;;;;0.40;0.40;;;;;;;16.25;50.96;98866.63;4980456;28;20050;-86
2022/08/07 00:36:37;;;;;;;0.40;0.40;;;;;;;16.36;52.15;98857.13;4995645;28;20410;-87
2022/08/07 00:39:12;;;;;;;0.40;0.40;;;;;;;16.16;50.77;98849.38;4996416;28;20560;-86
2022/08/07 00:41:56;;;;;;;0.40;0.40;;;;;;;16.15;52.43;98863.63;4979704;28;20046;-86
2022/08/07 00:44:32;;;;;;;0.68;0.47;;;;;;;15.95;51.41;98844.44;4996093;28;20042;-85
2022/08/07 00:47:05;;;;;;;0.75;0.50;;;;;;;16.21;53.48;98856.66;4994978;28;20078;-86
2022/08/07 00:49:52;;;;;;;0.60;0.60;;;;;;;15.92;53.00;98843.06;4995079;28;20038;-87
2022/08/07 00:52:38;;;;;;;0.45;0.45;;;;;;;16.05;50.96;98850.88;4995462;28;20502;-88
2022/08/07 00:55:07;;;;;;;0.50;0.50;;;;;;;15.75;52.36;98860.47;4994857;28;20042;-86
2022/08/07 00:57:36;;;;;;;0.80;0.60;;;;;;;15.67;53.12;98872.13;4996074;28;20489;-87
2022/08/07 01:00:14;;;;;;;1.02;0.40;;;;;;;15.45;53.29;98855.75;4995288;28;20042;-86
2022/08/07 01:02:41;;;;;;;0.57;0.57;;;;;;;15.45;53.50;98854.94;5000805;28;20050;-89
2022/08/07 01:05:09;;;;;;;0.40;0.40;;;;;;;15.40;53.13;98854.75;4991672;28;20125;-88
2022/08/07 01:07:46;;;;;;;0.50;0.50;;;;;;;15.50;53.98;98857.75;4978165;28;20515;-87
2022/08/07 01:10:15;;;;;;;0.50;0.50;;;;;;;15.42;53.06;98860.66;4964539;28;20485;-89
2022/08/07 01:12:44;;;;;;;0.40;0.40;;;;;;;15.40;54.04;98839.72;4999514;28;20056;-89
2022/08/07 01:15:22;;;;;;;0.65;0.50;;;;;;;15.40;53.97;98874.06;4964733;28;20053;-88
2022/08/07 01:18:02;;;;;;;0.60;0.50;;;;;;;15.22;54.07;98866.84;4971667;28;20490;-88
2022/08/07 01:20:44;;;;;;;0.50;0.50;;;;;;;15.30;53.99;98867.66;4994189;28;20084;-89
2022/08/07 01:23:27;;;;;;;0.98;0.40;;;;;;;15.19;54.60;98871.75;4995299;28;20120;-88
2022/08/07 01:26:07;;;;;;;0.52;0.43;;;;;;;15.22;54.78;98866.03;4971718;28;20054;-88
2022/08/07 01:28:43;;;;;;;1.05;0.52;;;;;;;15.18;53.94;98855.09;4991495;28;20134;-89
2022/08/07 01:31:19;;;;;;;0.60;0.50;;;;;;;15.18;54.21;98859.56;4999695;28;20108;-89
2022/08/07 01:33:46;;;;;;;0.52;0.52;;;;;;;15.02;55.40;98870.59;5005367;28;20397;-86
2022/08/07 01:36:25;;;;;;;0.45;0.45;;;;;;;14.81;55.34;98874.31;5014212;28;20045;-86
2022/08/07 01:38:59;;;;;;;0.55;0.55;;;;;;;14.67;56.31;98868.25;5014049;28;20053;-87
2022/08/07 01:41:27;;;;;;;0.50;0.50;;;;;;;14.39;56.42;98863.19;4992929;28;20049;-87
2022/08/07 01:44:02;;;;;;;0.60;0.60;;;;;;;14.50;56.90;98857.31;5014795;28;20038;-86
2022/08/07 01:46:29;;;;;;;0.50;0.50;;;;;;;14.40;57.54;98851.66;5013958;28;20084;-86
2022/08/07 01:48:57;;;;;;;0.85;0.65;;;;;;;14.58;57.68;98870.31;5014800;28;20131;-87
2022/08/07 01:51:26;;;;;;;0.60;0.60;;;;;;;14.73;57.89;98872.72;4995534;28;20054;-87
2022/08/07 01:54:14;;;;;;;0.40;0.40;;;;;;;14.62;58.03;98855.69;4993921;28;20402;-86
2022/08/07 01:57:09;;;;;;;0.63;0.50;;;;;;;14.76;57.51;98866.22;4993707;28;20089;-87
2022/08/07 02:00:11;;;;;;;0.57;0.52;;;;;;;14.61;57.39;98859.34;4994282;28;20458;-86
2022/08/07 02:02:53;;;;;;;0.60;0.60;;;;;;;14.47;57.71;98860.41;4993533;28;20125;-87
2022/08/07 02:05:51;;;;;;;0.70;0.70;;;;;;;14.35;57.34;98859.38;5003045;28;20066;-88
2022/08/07 02:08:32;;;;;;;0.50;0.50;;;;;;;14.23;58.15;98848.63;5004569;28;20046;-89
2022/08/07 02:11:02;;;;;;;0.50;0.50;;;;;;;14.18;57.47;98843.16;4998567;28;20060;-88
2022/08/07 02:13:33;;;;;;;0.75;0.60;;;;;;;14.26;57.58;98856.13;4988379;28;20105;-89
2022/08/07 02:16:24;;;;;;;0.68;0.68;;;;;;;14.27;58.85;98851.66;4990795;28;20437;-89
2022/08/07 02:19:05;;;;;;;0.60;0.60;;;;;;;14.24;59.11;98858.16;4959002;28;20051;-89
2022/08/07 02:21:58;;;;;;;0.38;0.32;;;;;;;14.28;57.18;98835.63;4998001;28;20046;-89
2022/08/07 02:24:28;;;;;;;0.50;0.50;;;;;;;14.51;57.09;98840.47;4972885;28;20046;-89
2022/08/07 02:26:59;;;;;;;0.50;0.50;;;;;;;14.66;55.76;98834.97;4960479;28;20054;-89
2022/08/07 02:29:30;;;;;;;0.57;0.57;;;;;;;14.52;56.25;98843.94;4986651;28;20491;-88
2022/08/07 02:32:00;;;;;;;0.60;0.60;;;;;;;14.32;57.49;98838.66;4995308;28;20042;-88
2022/08/07 02:34:31;;;;;;;0.70;0.70;;;;;;;14.14;58.51;98845.38;4977994;28;20482;-89
2022/08/07 02:37:04;;;;;;;0.63;0.60;;;;;;;14.22;58.44;98831.19;4960642;28;20147;-90
2022/08/07 02:39:43;;;;;;;0.50;0.50;;;;;;;14.38;57.35;98832.56;5009143;28;20433;-88
2022/08/07 02:42:38;;;;;;;0.95;0.75;;;;;;;14.39;57.24;98839.44;5006574;28;20049;-90
2022/08/07 02:45:09;;;;;;;0.57;0.57;;;;;;;14.22;57.75;98825.91;4993526;28;20038;-88
2022/08/07 02:47:56;;;;;;;0.65;0.60;;;;;;;14.02;58.09;98838.28;5005165;28;20509;-88
2022/08/07 02:50:28;;;;;;;1.33;0.52;;;;;;;13.97;58.13;98830.97;5010616;28;20046;-88
2022/08/07 02:53:06;;;;;;;0.63;0.63;;;;;;;13.86;57.81;98823.69;4994097;28;20109;-87
2022/08/07 02:55:46;;;;;;;0.60;0.60;;;;;;;13.87;59.61;98817.41;5010092;28;20043;-89
2022/08/07 02:58:33;;;;;;;0.70;0.70;;;;;;;13.87;59.36;98835.84;4992226;28;20077;-87
2022/08/07 03:01:02;;;;;;;0.70;0.60;;;;;;;13.99;58.55;98814.97;4995720;28;20489;-86
2022/08/07 03:03:34;;;;;;;1.20;0.60;;;;;;;13.86;59.34;98811.31;5005740;28;20050;-87
2022/08/07 03:06:21;;;;;;;0.60;0.60;;;;;;;13.80;60.05;98817.41;4986670;28;20101;-88
2022/08/07 03:09:02;;;;;;;0.70;0.68;;;;;;;13.68;59.39;98824.28;4986638;28;20475;-87
2022/08/07 03:11:31;;;;;;;0.67;0.67;;;;;;;13.46;60.02;98818.38;5012103;28;20046;-88
2022/08/07 03:14:06;;;;;;;0.68;0.68;;;;;;;13.56;59.56;98823.25;4982266;28;20047;-87
2022/08/07 03:16:34;;;;;;;1.95;0.70;;;;;;;13.48;59.20;98821.59;4977085;28;20054;-86
2022/08/07 03:19:04;;;;;;;0.68;0.68;;;;;;;13.42;59.19;98822.41;4992439;28;20384;-86
2022/08/07 03:21:31;;;;;;;0.65;0.65;;;;;;;13.26;59.71;98801.72;4995107;28;20401;-87
2022/08/07 03:23:59;;;;;;;0.85;0.70;;;;;;;13.27;58.93;98803.34;5015694;28;20077;-87
2022/08/07 03:26:51;;;;;;;0.85;0.73;;;;;;;13.41;60.03;98817.34;4994588;28;20097;-88
2022/08/07 03:29:46;;;;;;;0.70;0.70;;;;;;;13.45;59.03;98826.47;4992672;28;20105;-85
2022/08/07 03:32:32;;;;;;;0.70;0.70;;;;;;;13.44;58.89;98825.66;4992727;28;20174;-86
2022/08/07 03:35:02;;;;;;;0.70;0.70;;;;;;;13.43;60.00;98813.47;4978163;28;20039;-86
2022/08/07 03:37:49;;;;;;;0.70;0.70;;;;;;;13.48;59.79;98815.53;4980129;28;20457;-87
2022/08/07 03:40:22;;;;;;;1.65;0.80;;;;;;;13.39;61.21;98817.56;4976545;28;20055;-86
2022/08/07 03:43:13;;;;;;;0.60;0.60;;;;;;;13.31;61.06;98817.72;5009830;28;20056;-86
2022/08/07 03:46:05;;;;;;;1.40;0.70;;;;;;;13.30;61.54;98808.19;5015366;28;20056;-86
2022/08/07 03:49:02;;;;;;;1.08;0.88;;;;;;;13.33;61.28;98819.16;4996857;28;20446;-85
2022/08/07 03:51:50;;;;;;;1.75;0.60;;;;;;;13.51;60.34;98815.94;4996228;28;20459;-86
2022/08/07 03:54:46;;;;;;;0.70;0.70;;;;;;;13.63;61.24;98827.53;4977922;28;20081;-85
2022/08/07 03:57:34;;;;;;;0.50;0.50;;;;;;;13.76;59.57;98818.81;4976098;28;20134;-86
2022/08/07 04:00:21;;;;;;;0.57;0.57;;;;;;;13.73;58.94;98818.38;4976934;28;20138;-86
2022/08/07 04:02:58;;;;;;;0.50;0.50;;;;;;;13.92;58.91;98809.69;4977103;28;20046;-86
2022/08/07 04:05:29;;;;;;;0.57;0.52;;;;;;;13.78;57.88;98816.78;4975844;28;20127;-85
2022/08/07 04:08:13;;;;;;;0.60;0.60;;;;;;;13.76;58.35;98807.44;4976213;28;20049;-86
2022/08/07 04:10:46;;;;;;;0.73;0.60;;;;;;;13.72;58.60;98816.78;4975405;28;20050;-87
2022/08/07 04:13:34;;;;;;;1.00;0.70;;;;;;;13.62;58.22;98833.00;4975946;28;20046;-86
2022/08/07 04:16:21;;;;;;;0.85;0.68;;;;;;;13.56;58.87;98818.78;4976688;28;20043;-88
2022/08/07 04:19:03;;;;;;;1.25;0.70;;;;;;;13.50;58.22;98819.59;4975381;28;20070;-85
2022/08/07 04:21:41;;;;;;;1.58;1.05;;;;;;;13.62;58.99;98833.81;4976489;28;20054;-85
2022/08/07 04:24:27;;;;;;;0.98;0.63;;;;;;;13.72;58.95;98830.75;4975615;28;20126;-86
2022/08/07 04:27:01;;;;;;;0.68;0.68;;;;;;;13.72;58.55;98828.13;4975508;28;20726;-86
2022/08/07 04:29:30;;;;;;;0.55;0.55;;;;;;;13.73;58.70;98821.81;4976140;28;20057;-87
2022/08/07 04:32:17;;;;;;;0.63;0.63;;;;;;;13.82;58.22;98827.72;4976484;28;20410;-85
2022/08/07 04:35:05;;;;;;;0.52;0.52;;;;;;;13.81;58.68;98836.66;4975613;28;20058;-86
2022/08/07 04:37:40;;;;;;;0.65;0.65;;;;;;;13.72;59.22;98822.03;4975256;28;20057;-87
2022/08/07 04:40:27;;;;;;;0.60;0.60;;;;;;;13.71;59.71;98826.50;4961264;28;20094;-87
2022/08/07 04:43:21;;;;;;;0.60;0.50;;;;;;;13.82;59.33;98835.63;4976150;28;20054;-86
2022/08/07 04:46:43;;;;;;;0.75;0.50;;;;;;;14.03;59.83;98851.25;4987198;28;20398;-86
2022/08/07 04:49:44;;;;;;;0.50;0.50;;;;;;;14.06;60.07;98844.78;4977232;28;20074;-87
2022/08/07 04:52:57;;;;;;;0.50;0.50;;;;;;;14.15;61.36;98844.38;4976292;28;20069;-87
2022/08/07 04:56:04;;;;;;;0.70;0.70;;;;;;;14.15;61.27;98849.66;4991167;28;20046;-88
2022/08/07 04:58:59;;;;;;;0.60;0.60;;;;;;;14.01;59.78;98849.84;4987128;28;20061;-86
2022/08/07 05:01:56;;;;;;;0.60;0.60;;;;;;;14.04;60.56;98852.91;4976540;28;20053;-86
2022/08/07 05:04:41;;;;;;;0.93;0.60;;;;;;;14.18;59.86;98851.88;4975913;28;20569;-87
2022/08/07 05:07:35;;;;;;;0.47;0.47;;;;;;;14.18;60.64;98849.22;4959768;28;20426;-87
2022/08/07 05:10:27;;;;;;;0.80;0.50;;;;;;;14.05;59.68;98851.88;4990715;28;20047;-88
2022/08/07 05:13:08;;;;;;;0.50;0.50;;;;;;;14.05;61.79;98849.25;4976029;28;20125;-86
2022/08/07 05:15:58;;;;;;;0.50;0.50;;;;;;;14.06;60.84;98861.41;4976151;28;20075;-87
2022/08/07 05:18:35;;;;;;;0.50;0.50;;;;;;;13.93;60.74;98841.13;4990611;28;20046;-86
2022/08/07 05:21:08;;;;;;;0.50;0.50;;;;;;;14.18;61.80;98846.59;4991373;28;20129;-86
2022/08/07 05:23:44;;;;;;;0.43;0.43;;;;;;;14.39;61.19;98845.56;4976330;28;20523;-87
2022/08/07 05:26:19;;;;;;;0.52;0.52;;;;;;;14.49;60.36;98839.06;4991275;28;20444;-87
2022/08/07 05:28:56;;;;;;;0.90;0.60;;;;;;;14.36;59.76;98837.22;4990518;28;20051;-87
2022/08/07 05:31:32;;;;;;;0.50;0.50;;;;;;;14.40;60.21;98841.91;4990916;28;20039;-87
2022/08/07 05:34:08;;;;;;;0.50;0.50;;;;;;;14.69;60.27;98850.38;4975342;28;20502;-86
2022/08/07 05:36:42;;;;;;;0.60;0.60;;;;;;;14.78;58.35;98840.41;4990636;28;20078;-87
2022/08/07 05:39:11;;;;;;;1.20;0.85;;;;;;;14.82;58.65;98852.19;4974999;28;20047;-89
2022/08/07 05:41:58;;;;;;;0.50;0.50;;;;;;;14.92;58.89;98860.47;4988291;28;20046;-86
2022/08/07 05:44:35;;;;;;;0.60;0.60;;;;;;;15.05;60.81;98865.69;4989796;28;20053;-86
2022/08/07 05:47:03;;;;;;;0.68;0.68;;;;;;;15.15;59.75;98854.69;4990184;28;20057;-85
2022/08/07 05:49:49;;;;;;;0.60;0.60;;;;;;;15.33;56.96;98851.34;4975534;28;20043;-86
2022/08/07 05:52:20;;;;;;;0.60;0.60;;;;;;;15.47;59.26;98852.88;4975096;28;20055;-87
2022/08/07 05:54:58;;;;;;;0.60;0.60;;;;;;;15.52;59.33;98861.00;4959381;28;20110;-86
2022/08/07 05:57:40;;;;;;;0.50;0.50;;;;;;;15.72;59.28;98856.44;4974323;28;20054;-87
2022/08/07 06:00:10;;;;;;;0.57;0.57;;;;;;;15.90;58.50;98853.06;4989474;28;20089;-87
2022/08/07 06:02:51;;;;;;;0.52;0.52;;;;;;;16.06;58.58;98856.97;4989314;28;20043;-86
2022/08/07 06:05:20;;;;;;;0.52;0.40;;;;;;;16.24;56.98;98862.31;4993628;28;20042;-88
2022/08/07 06:07:58;;;;;;;0.65;0.50;;;;;;;16.40;58.22;98860.16;4993684;28;20409;-86
2022/08/07 06:10:45;;;;;;;;;;;;;;;16.52;56.04;98861.06;4995653;28;20425;-88
2022/08/07 06:13:17;;;;;;;0.50;0.50;;;;;;;16.62;56.01;98857.91;4992992;28;20650;-89
2022/08/07 06:15:48;;;;;;;0.47;0.47;;;;;;;16.78;57.05;98855.50;4992196;28;20110;-89
2022/08/07 06:18:17;;;;;;;0.50;0.50;;;;;;;16.87;53.67;98858.69;5009756;28;20041;-89
2022/08/07 06:20:47;;;;;;;0.63;0.63;;;;;;;17.00;54.61;98858.50;5008720;28;20460;-90
2022/08/07 06:23:33;;;;;;;0.50;0.50;;;;;;;17.19;55.95;98846.03;4983262;28;20486;-89
2022/08/07 06:26:20;;;;;;;0.60;0.60;;;;;;;17.30;55.00;98847.13;4975110;28;20043;-90
2022/08/07 06:28:58;;;;;;;0.55;0.55;;;;;;;17.56;54.12;98861.84;4983122;28;20056;-89
2022/08/07 06:31:27;;;;;;;0.50;0.50;;;;;;;17.58;53.85;98855.31;4975148;28;20062;-89
2022/08/07 06:34:14;;;;;;;0.75;0.60;;;;;;;17.84;56.68;98862.09;4998414;28;20042;-90
2022/08/07 06:36:45;;;;;;;0.50;0.50;;;;;;;17.86;54.49;98852.03;4998096;28;20136;-90
2022/08/07 06:39:12;;;;;;;0.85;0.57;;;;;;;18.01;55.74;98856.13;4985673;28;20050;-89
2022/08/07 06:42:38;;;;;;;0.50;0.50;;;;;;;18.20;53.29;98854.97;5002831;28;20046;-88
2022/08/07 06:45:14;;;;;;;0.70;0.70;;;;;;;18.25;53.67;98867.56;5002274;28;20053;-89
2022/08/07 06:47:46;;;;;;;0.50;0.50;;;;;;;18.10;52.32;98863.50;4991240;28;20179;-89
2022/08/07 06:50:25;;;;;;;0.70;0.70;;;;;;;18.36;51.95;98866.78;4981409;28;20074;-89
2022/08/07 06:52:54;;;;;;;0.52;0.52;;;;;;;18.64;53.63;98866.84;5002025;28;20053;-92
2022/08/07 06:55:32;;;;;;;0.75;0.50;;;;;;;18.87;54.90;98868.69;4993760;28;20060;-95
2022/08/07 06:58:22;;;;;;;0.63;0.63;;;;;;;18.99;50.28;98856.19;5008571;28;20481;-93
2022/08/07 07:00:56;;;;;;;0.52;0.52;;;;;;;19.28;50.77;98858.88;4962086;28;20420;-90
2022/08/07 07:03:24;;;;;;;0.63;0.60;;;;;;;19.32;48.95;98860.03;4992853;28;20067;-90
2022/08/07 07:06:08;;;;;;;0.82;0.63;;;;;;;19.43;50.93;98861.84;5004053;28;20398;-90
2022/08/07 07:08:37;;;;;;;0.70;0.70;;;;;;;19.64;50.15;98846.25;4996424;28;20478;-90
2022/08/07 07:11:12;;;;;;;0.80;0.80;;;;;;;19.74;47.21;98841.13;5013335;28;20756;-90
2022/08/07 07:14:02;;;;;;;0.80;0.75;;;;;;;20.03;48.96;98844.50;5009058;28;20038;-89
2022/08/07 07:16:40;;;;;;;1.05;0.60;;;;;;;20.33;44.49;98846.81;4995746;28;20046;-87
2022/08/07 07:19:29;;;;;;;0.77;0.77;;;;;;;20.48;44.90;98847.06;4990007;28;20069;-89
2022/08/07 07:22:18;;;;;;;0.60;0.60;;;;;;;20.58;43.48;98843.75;4979699;28;20490;-92
2022/08/07 07:25:05;;;;;;;0.60;0.60;;;;;;;20.81;44.25;98850.69;4995732;28;20110;-91
2022/08/07 07:28:24;;;;;;;0.70;0.70;;;;;;;21.10;44.72;98848.63;4973622;28;20117;-91
2022/08/07 07:31:39;;;;;;;0.80;0.80;;;;;;;21.35;44.22;98853.47;4976188;28;20141;-89
2022/08/07 07:34:22;;;;;;;;;;;;;;;21.32;41.84;98848.66;5014212;28;20129;-89
2022/08/07 07:37:01;;;;;;;0.80;0.80;;;;;;;21.32;42.54;98843.31;4990694;28;19929;-85
2022/08/07 07:39:44;;;;;;;0.65;0.65;;;;;;;21.68;43.47;98846.31;5012273;28;20052;-88
2022/08/07 07:42:26;;;;;;;0.80;0.80;;;;;;;21.73;42.51;98836.50;4999913;28;20052;-92
2022/08/07 07:45:05;;;;;;;1.17;1.05;;;;;;;21.90;42.70;98844.41;4976702;28;20101;-93
2022/08/07 07:47:40;;;;;;;0.93;0.93;;;;;;;21.85;40.91;98839.00;4977119;28;20054;-89
2022/08/07 07:50:22;;;;;;;1.50;1.05;;;;;;;21.89;41.73;98829.41;4990797;28;20069;-90
2022/08/07 07:53:06;;;;;;;0.82;0.82;;;;;;;22.10;41.14;98831.22;4982349;28;20090;-91
2022/08/07 07:55:57;;;;;;;1.70;0.90;;;;;;;22.18;41.11;98832.59;5015623;28;20452;-84
2022/08/07 07:58:35;;;;;;;0.93;0.90;;;;;;;22.25;41.50;98830.53;5013266;28;20056;-88
2022/08/07 08:01:05;;;;;;;0.95;0.90;;;;;;;22.37;40.67;98827.63;5014463;28;20066;-89
2022/08/07 08:03:56;;;;;;;1.23;0.88;;;;;;;22.38;40.10;98816.69;5006395;28;20413;-86
2022/08/07 08:06:41;;;;;;;1.00;1.00;;;;;;;22.56;40.65;98834.19;5009039;28;20069;-87
2022/08/07 08:09:22;;;;;;;1.00;1.00;;;;;;;22.74;39.41;98816.09;4976544;28;20046;-87
2022/08/07 08:11:52;;;;;;;1.08;1.08;;;;;;;22.64;38.94;98824.84;4974281;28;20082;-86
2022/08/07 08:14:32;;;;;;;1.20;1.10;;;;;;;22.70;39.68;98821.13;4996942;28;20077;-88
2022/08/07 08:17:07;;;;;;;1.20;1.10;;;;;;;22.84;38.56;98819.56;4992173;28;20047;-87
2022/08/07 08:20:05;;;;;;;1.27;1.17;;;;;;;22.84;38.18;98808.88;4998484;28;20053;-87
2022/08/07 08:28:39;;;;;;;1.50;1.00;;;;;;;23.01;37.39;98814.06;4991909;28;20478;-86
2022/08/07 08:31:19;;;;;;;0.90;0.90;;;;;;;23.03;37.41;98795.91;4999410;28;20121;-84
2022/08/07 08:34:00;;;;;;;0.80;0.80;;;;;;;23.19;38.30;98810.91;5001573;28;20052;-84
2022/08/07 08:36:33;;;;;;;0.93;0.93;;;;;;;23.26;35.85;98812.50;5008035;28;20038;-85
2022/08/07 08:39:02;;;;;;;1.08;0.98;;;;;;;23.51;37.60;98801.88;4997278;28;20065;-86
2022/08/07 08:41:40;;;;;;;1.15;1.00;;;;;;;23.44;34.07;98818.16;5001068;28;20053;-86
2022/08/07 08:45:27;;;;;;;0.90;0.90;;;;;;;23.42;34.92;98816.84;4999311;28;20046;-84
2022/08/07 08:48:28;;;;;;;1.00;1.00;;;;;;;23.55;35.69;98813.63;4985462;28;20514;-89
2022/08/07 08:51:34;;;;;;;0.70;0.70;;;;;;;23.67;35.46;98822.22;4983715;28;20050;-85
2022/08/07 08:54:30;;;;;;;0.73;0.70;;;;;;;23.56;34.02;98815.22;5004961;28;20050;-91
2022/08/07 08:57:07;;;;;;;1.58;0.90;;;;;;;23.51;34.46;98807.22;4990571;28;20046;-90
2022/08/07 08:59:50;;;;;;;0.98;0.80;;;;;;;23.64;34.45;98803.25;4984145;28;20066;-83
2022/08/07 09:03:08;;;;;;;0.85;0.85;;;;;;;23.63;36.39;98798.94;5000802;28;20045;-91
2022/08/07 09:06:05;;;;;;;0.73;0.73;;;;;;;23.85;35.41;98791.44;5000076;28;20053;-91
2022/08/07 09:09:07;;;;;;;1.30;0.80;;;;;;;23.97;36.28;98783.13;5009414;28;20102;-89
2022/08/07 09:12:18;;;;;;;1.08;0.85;;;;;;;23.98;33.52;98784.72;4988252;28;20042;-84
2022/08/07 09:15:37;;;;;;;0.95;0.88;;;;;;;24.20;34.54;98798.63;4992915;28;20038;-84
2022/08/07 09:18:45;;;;;;;0.90;0.90;;;;;;;23.87;34.13;98788.47;4977658;28;20046;-85
2022/08/07 09:21:29;;;;;;;0.70;0.70;;;;;;;23.94;33.88;98789.03;4999753;28;20050;-89
2022/08/07 09:24:34;;;;;;;1.42;0.80;;;;;;;24.07;32.99;98782.31;5009689;28;20161;-88
2022/08/07 09:27:50;;;;;;;0.70;0.70;;;;;;;24.23;34.50;98776.66;5000026;28;20141;-86
2022/08/07 09:31:16;;;;;;;1.17;0.88;;;;;;;24.02;33.04;98775.88;5003150;28;20064;-87
2022/08/07 09:33:56;;;;;;;1.38;0.88;;;;;;;24.29;34.93;98780.94;4941140;28;20101;-86
2022/08/07 09:36:34;;;;;;;0.73;0.73;;;;;;;24.47;34.58;98776.88;5001597;28;20504;-89
2022/08/07 09:39:10;;;;;;;0.68;0.68;;;;;;;24.49;32.73;98780.09;5011645;28;20296;-88
2022/08/07 09:42:24;;;;;;;1.35;0.80;;;;;;;24.45;32.28;98773.66;4996855;28;20046;-89
2022/08/07 09:45:28;;;;;;;1.35;0.63;;;;;;;24.33;32.24;98769.66;4992045;28;20138;-86
2022/08/07 09:48:36;;;;;;;1.08;0.70;;;;;;;24.32;32.94;98768.84;5003401;28;20046;-87
2022/08/07 09:51:54;;;;;;;1.20;0.80;;;;;;;24.44;34.44;98755.16;4993201;28;20045;-91
2022/08/07 09:54:53;;;;;;;0.60;0.60;;;;;;;24.59;32.98;98755.13;4999348;28;20054;-85
2022/08/07 09:57:38;;;;;;;0.70;0.70;;;;;;;24.66;31.89;98757.50;4978617;28;20050;-87
2022/08/07 10:00:19;;;;;;;1.08;0.80;;;;;;;24.83;34.87;98756.06;5005268;28;20089;-85
2022/08/07 10:03:30;;;;;;;0.80;0.80;;;;;;;24.74;31.54;98747.00;5002405;28;20500;-86
2022/08/07 10:06:36;;;;;;;1.70;0.80;;;;;;;24.83;31.88;98750.72;4987025;28;20038;-86
2022/08/07 10:09:42;;;;;;;1.25;0.73;;;;;;;25.01;32.13;98753.81;4991446;28;20077;-88
2022/08/07 10:12:54;;;;;;;0.80;0.70;;;;;;;24.77;30.35;98738.41;4996825;28;20050;-86
2022/08/07 10:15:42;;;;;;;0.70;0.70;;;;;;;24.87;31.79;98728.69;4999986;28;20460;-89
2022/08/07 10:18:56;;;;;;;0.60;0.60;;;;;;;25.08;30.85;98727.53;4971623;28;20085;-87
2022/08/07 10:22:06;;;;;;;0.70;0.70;;;;;;;25.23;30.92;98735.44;4997191;28;20049;-86
2022/08/07 10:24:55;;;;;;;0.65;0.65;;;;;;;25.16;31.32;98724.22;4987120;28;20066;-90
2022/08/07 10:27:52;;;;;;;1.05;0.70;;;;;;;25.28;31.52;98723.88;4993590;28;20474;-85
2022/08/07 10:31:04;;;;;;;0.70;0.70;;;;;;;25.24;31.12;98699.47;4988646;28;20057;-84
2022/08/07 10:34:12;;;;;;;0.90;0.70;;;;;;;25.45;31.01;98700.09;4972819;28;20047;-85
2022/08/07 10:37:17;;;;;;;0.60;0.60;;;;;;;25.61;31.05;98700.78;5007024;28;20038;-88
2022/08/07 10:40:23;;;;;;;0.90;0.68;;;;;;;25.56;29.45;98696.25;4986808;28;20558;-85
2022/08/07 10:43:29;;;;;;;0.50;0.50;;;;;;;25.82;31.50;98701.41;4993969;28;20070;-88
2022/08/07 10:46:12;;;;;;;0.98;0.70;;;;;;;25.68;29.83;98697.75;4970511;28;20051;-88
2022/08/07 10:49:01;;;;;;;0.80;0.80;;;;;;;25.52;29.16;98700.56;4979841;28;20059;-84
2022/08/07 10:52:05;;;;;;;0.70;0.70;;;;;;;25.66;31.07;98691.84;4990070;28;20086;-86
2022/08/07 10:54:51;;;;;;;0.82;0.73;;;;;;;25.75;29.45;98680.25;4976826;28;20077;-90
2022/08/07 10:57:57;;;;;;;1.55;0.60;;;;;;;25.84;29.36;98680.41;4996058;28;20103;-84
2022/08/07 11:00:44;;;;;;;0.63;0.63;;;;;;;26.05;29.59;98676.44;4987097;28;20053;-89
2022/08/07 11:03:36;;;;;;;0.70;0.70;;;;;;;26.02;28.60;98678.88;4999095;28;20120;-89
2022/08/07 11:06:39;;;;;;;0.90;0.80;;;;;;;26.04;28.79;98672.16;4993163;28;20046;-84
2022/08/07 11:09:17;;;;;;;0.65;0.65;;;;;;;25.72;29.00;98667.34;4966661;28;20053;-87
2022/08/07 11:12:22;;;;;;;1.13;0.70;;;;;;;25.88;28.84;98662.66;4991613;28;20042;-90
2022/08/07 11:15:08;;;;;;;0.93;0.70;;;;;;;26.00;28.82;98662.25;4979978;28;20085;-86
2022/08/07 11:17:49;;;;;;;0.60;0.60;;;;;;;26.15;27.78;98667.47;5009416;28;20544;-91
2022/08/07 11:20:34;;;;;;;0.80;0.80;;;;;;;26.25;28.13;98661.94;5015202;28;20045;-85
2022/08/07 11:23:24;;;;;;;0.60;0.60;;;;;;;26.18;27.91;98668.75;5005721;28;20045;-87
2022/08/07 11:26:24;;;;;;;;;;;;;;;26.21;29.29;98658.25;5000156;28;20639;-88
2022/08/07 11:29:14;;;;;;;0.50;0.47;;;;;;;26.49;28.81;98653.06;5011847;28;19921;-85
2022/08/07 11:32:14;;;;;;;0.80;0.80;;;;;;;26.62;27.17;98649.63;4995314;28;20137;-83
2022/08/07 11:35:01;;;;;;;0.50;0.47;;;;;;;26.74;28.35;98636.53;4990206;28;20532;-87
2022/08/07 11:37:54;;;;;;;1.17;0.70;;;;;;;26.72;28.88;98643.31;5011227;28;20046;-85
2022/08/07 11:40:59;;;;;;;0.65;0.65;;;;;;;26.81;28.91;98634.31;5000509;28;20136;-85
2022/08/07 11:43:57;;;;;;;0.70;0.70;;;;;;;26.81;27.87;98642.38;5006734;28;20046;-87
2022/08/07 11:47:05;;;;;;;0.60;0.60;;;;;;;27.00;27.96;98628.09;4998593;28;20062;-86
2022/08/07 11:50:19;;;;;;;0.60;0.60;;;;;;;26.72;26.87;98630.66;4957879;28;20109;-84
2022/08/07 11:53:07;;;;;;;0.60;0.60;;;;;;;26.78;27.93;98634.88;5000896;28;20494;-83
2022/08/07 11:56:13;;;;;;;0.60;0.60;;;;;;;26.83;26.94;98624.03;5010137;28;20050;-83
2022/08/07 11:59:24;;;;;;;1.27;0.77;;;;;;;27.04;27.90;98615.63;4995780;28;20129;-80
2022/08/07 12:02:49;;;;;;;0.70;0.70;;;;;;;27.15;27.27;98617.88;4974822;28;20057;-84
2022/08/07 12:05:50;;;;;;;0.70;0.70;;;;;;;26.91;26.69;98609.91;4977712;28;20501;-83
2022/08/07 12:08:36;;;;;;;1.50;1.05;;;;;;;26.59;26.83;98618.75;5007549;28;20042;-84
2022/08/07 12:11:18;;;;;;;1.00;0.90;;;;;;;26.58;27.41;98613.66;5001496;28;20100;-83
2022/08/07 12:14:26;;;;;;;0.95;0.80;;;;;;;26.55;26.93;98622.31;4975130;28;20414;-84
2022/08/07 12:17:01;;;;;;;1.58;0.70;;;;;;;26.60;25.98;98617.66;4975033;28;20062;-86
2022/08/07 12:19:56;;;;;;;0.88;0.80;;;;;;;26.35;27.76;98610.72;5003038;28;20077;-83
2022/08/07 12:23:11;;;;;;;0.93;0.70;;;;;;;26.35;26.23;98607.25;5012296;28;20133;-84
2022/08/07 12:26:37;;;;;;;0.80;0.80;;;;;;;26.36;25.25;98604.25;5009620;28;20140;-81
2022/08/07 12:29:23;;;;;;;0.60;0.60;;;;;;;26.60;27.29;98590.75;4982823;28;20101;-84
2022/08/07 12:32:46;;;;;;;0.60;0.60;;;;;;;26.74;25.30;98590.81;4994717;28;20041;-82
2022/08/07 12:35:18;;;;;;;;;;;;;;;26.92;27.74;98598.03;4966493;28;20634;-83
2022/08/07 12:37:53;;;;;;;0.50;0.50;;;;;;;27.05;26.79;98591.13;4979306;28;19921;-83
2022/08/07 12:40:41;;;;;;;0.90;0.75;;;;;;;27.03;27.12;98587.91;5000260;28;20374;-85
2022/08/07 12:43:19;;;;;;;0.88;0.60;;;;;;;27.12;27.89;98590.78;4993667;28;20521;-90
2022/08/07 12:46:52;;;;;;;0.80;0.80;;;;;;;27.24;26.09;98583.03;4959403;28;20133;-89
2022/08/07 12:50:17;;;;;;;0.60;0.50;;;;;;;27.54;29.62;98588.94;5003678;28;20077;-87
2022/08/07 12:53:47;;;;;;;0.50;0.50;;;;;;;27.58;28.31;98593.41;4953937;28;20077;-90
2022/08/07 12:56:43;;;;;;;;;;;;;;;27.69;27.37;98583.28;4967075;28;20089;-92
2022/08/07 12:59:27;;;;;;;1.00;0.90;;;;;;;27.54;27.08;98581.66;4981404;28;19921;-88
2022/08/07 13:02:28;;;;;;;0.80;0.80;;;;;;;27.58;26.69;98576.44;5010780;28;20053;-88
2022/08/07 13:05:35;;;;;;;1.15;0.80;;;;;;;27.76;27.01;98578.28;4986881;28;20047;-88
2022/08/07 13:08:40;;;;;;;1.30;0.70;;;;;;;27.81;25.34;98563.91;5009231;28;20077;-86